Flight Track Log - Related Links

Times and Time Zones

All times are in EDT time to prevent confusion due to time zone crossing. See the DAL1981 flight status page for this flight to view local times or setup timezone preferences in your user account.

Time Position Orientation Groundspeed Altitude Reporting Facility
EDT Latitude Longitude Course Direction KTS MPH feet Rate Location/Type
Tue 03:52:18 PM 38.6500 -121.5667 78° East 175 201 1,500  Level Northern Cal TRACON
Tue 03:53:18 PM 38.6333 -121.5000 108° East 247 284 2,500 1,850 Climbing Northern Cal TRACON
Tue 03:54:18 PM 38.6167 -121.4000 102° East 274 315 5,200 2,557 Climbing Northern Cal TRACON
Tue 03:55:13 PM 38.6167 -121.3167 90° East 290 334 7,400 2,380 Climbing Northern Cal TRACON
Tue 03:56:19 PM 38.6333 -121.2000 80° East 298 343 10,000 1,800 Climbing Northern Cal TRACON
Tue 03:57:00 PM 38.5884 -120.7869 78° East  Level FlightAware Approximate
Tue 03:57:13 PM 38.6333 -121.1000 90° East 334 384 11,000  Level Northern Cal TRACON
Tue 03:58:26 PM 38.6508 -120.9558 81° East 363 418 13,000 1,956 Climbing Oakland Center
Tue 03:59:28 PM 38.6625 -120.8250 83° East 370 426 15,400 2,000 Climbing Oakland Center
Tue 04:00:29 PM 38.6847 -120.6961 78° East 375 432 17,100 1,659 Climbing Oakland Center
Tue 04:01:31 PM 38.7728 -120.5686 48° Northeast 398 458 18,800 1,561 Climbing Oakland Center
Tue 04:02:32 PM 38.8533 -120.4539 48° Northeast 427 491 20,300 1,415 Climbing Oakland Center
Tue 04:03:34 PM 38.9339 -120.3353 49° Northeast 439 505 21,700 1,512 Climbing Oakland Center
Tue 04:04:35 PM 39.0222 -120.2092 48° Northeast 447 514 23,400 1,512 Climbing Oakland Center
Tue 04:05:37 PM 39.0981 -120.1014 48° Northeast 449 517 24,800 1,171 Climbing Oakland Center
Tue 04:06:38 PM 39.1822 -119.9781 49° Northeast 458 527 25,800 927 Climbing Oakland Center
Tue 04:07:40 PM 39.2694 -119.8522 48° Northeast 467 537 26,700 976 Climbing Oakland Center
Tue 04:08:41 PM 39.3756 -119.6983 48° Northeast 478 550 27,800 976 Climbing Oakland Center
Tue 04:09:43 PM 39.4653 -119.5686 48° Northeast 481 554 28,700 1,073 Climbing Oakland Center
Tue 04:10:44 PM 39.5542 -119.4356 49° Northeast 485 558 30,000 1,220 Climbing Oakland Center
Tue 04:11:46 PM 39.6419 -119.3058 49° Northeast 477 549 31,200 1,024 Climbing Oakland Center
Tue 04:12:47 PM 39.7283 -119.1764 49° Northeast 472 543 32,100 878 Climbing Oakland Center
Tue 04:13:49 PM 39.8147 -119.0469 49° Northeast 470 541 33,000 878 Climbing Oakland Center
Tue 04:14:50 PM 39.9008 -118.9181 49° Northeast 469 540 33,900 732 Climbing Oakland Center
Tue 04:15:52 PM 39.9869 -118.7878 49° Northeast 469 540 34,500 537 Climbing Oakland Center
Tue 04:16:53 PM 40.0711 -118.6586 50° Northeast 467 537 35,000 244 Climbing Oakland Center
Tue 04:17:55 PM 40.1397 -118.5150 58° Northeast 464 534 35,000  Level Oakland Center
Tue 04:18:57 PM 40.1867 -118.3572 69° East 461 531 35,000  Level Oakland Center
Tue 04:19:58 PM 40.2383 -118.1667 70° East 462 532 35,000  Level Oakland Center
Tue 04:21:00 PM 40.2814 -118.0083 70° East 460 529 35,000  Level Oakland Center
Tue 04:22:01 PM 40.3231 -117.8542 70° East 460 529 35,000  Level Oakland Center
Tue 04:22:48 PM 40.3558 -117.7289 71° East 455 524 35,000  Level Salt Lake Center
Tue 04:23:50 PM 40.3958 -117.5786 71° East 454 522 35,000  Level Salt Lake Center
Tue 04:24:51 PM 40.4428 -117.4028 71° East 455 524 35,000  Level Salt Lake Center
Tue 04:25:53 PM 40.4839 -117.2514 70° East 459 528 35,000  Level Salt Lake Center
Tue 04:26:55 PM 40.5236 -117.0978 71° East 460 529 35,000  Level Salt Lake Center
Tue 04:27:57 PM 40.5719 -116.9183 70° East 460 529 35,000  Level Salt Lake Center
Tue 04:28:59 PM 40.6297 -116.7717 63° Northeast 463 533 35,000  Level Salt Lake Center
Tue 04:30:01 PM 40.6856 -116.6275 63° Northeast 460 529 35,000  Level Salt Lake Center
Tue 04:31:03 PM 40.7497 -116.4583 63° Northeast 462 532 35,000  Level Salt Lake Center
Tue 04:32:05 PM 40.8053 -116.3122 63° Northeast 464 534 35,000  Level Salt Lake Center
Tue 04:33:07 PM 40.8733 -116.1422 62° Northeast 468 539 35,000  Level Salt Lake Center
Tue 04:34:09 PM 40.9286 -115.9958 63° Northeast 467 537 35,000  Level Salt Lake Center
Tue 04:35:10 PM 40.9786 -115.8153 70° East 465 535 35,000  Level Salt Lake Center
Tue 04:36:12 PM 41.0200 -115.6608 70° East 466 536 35,000  Level Salt Lake Center
Tue 04:37:14 PM 41.0708 -115.4800 69° East 467 537 35,000  Level Salt Lake Center
Tue 04:38:16 PM 41.1139 -115.3236 70° East 469 540 35,000  Level Salt Lake Center
Tue 04:39:18 PM 41.1550 -115.1669 71° East 470 541 35,000  Level Salt Lake Center
Tue 04:40:20 PM 41.2053 -114.9828 70° East 474 545 35,000  Level Salt Lake Center
Tue 04:41:22 PM 41.2486 -114.8167 71° East 474 545 35,000  Level Salt Lake Center
Tue 04:42:24 PM 41.2953 -114.6511 69° East 478 550 35,000  Level Salt Lake Center
Tue 04:43:25 PM 41.3386 -114.4839 71° East 479 551 35,000  Level Salt Lake Center
Tue 04:44:27 PM 41.3833 -114.3169 70° East 480 552 35,000  Level Salt Lake Center
Tue 04:45:29 PM 41.4356 -114.1161 71° East 480 552 35,000  Level Salt Lake Center
Tue 04:46:31 PM 41.4786 -113.9500 71° East 476 548 35,000  Level Salt Lake Center
Tue 04:47:33 PM 41.5211 -113.7831 71° East 477 549 35,000  Level Salt Lake Center
Tue 04:48:35 PM 41.5653 -113.6169 70° East 476 548 35,000  Level Salt Lake Center
Tue 04:49:36 PM 41.6289 -113.4675 60° Northeast 469 540 35,000  Level Salt Lake Center
Tue 04:50:38 PM 41.7011 -113.3253 56° Northeast 466 536 35,000  Level Salt Lake Center
Tue 04:51:40 PM 41.7842 -113.1892 51° Northeast 470 541 35,000  Level Salt Lake Center
Tue 04:52:42 PM 41.8475 -112.9953 66° East 478 550 35,000  Level Salt Lake Center
Tue 04:53:44 PM 41.8881 -112.8275 72° East 474 545 35,000  Level Salt Lake Center
Tue 04:54:46 PM 41.9281 -112.6597 72° East 473 544 35,000  Level Salt Lake Center
Tue 04:55:48 PM 41.9681 -112.4919 72° East 471 542 35,000  Level Salt Lake Center
Tue 04:56:49 PM 42.0078 -112.3206 73° East 477 549 35,000  Level Salt Lake Center
Tue 04:57:51 PM 42.0469 -112.1553 72° East 469 540 35,000  Level Salt Lake Center
Tue 04:58:53 PM 42.0853 -111.9894 73° East 466 536 35,000  Level Salt Lake Center
Tue 04:59:55 PM 42.1322 -111.7875 73° East 470 541 35,000  Level Salt Lake Center
Tue 05:00:57 PM 42.1694 -111.6217 73° East 465 535 35,000  Level Salt Lake Center
Tue 05:01:59 PM 42.2069 -111.4553 73° East 464 534 35,000 -48 Level Salt Lake Center
Tue 05:03:01 PM 42.2444 -111.2889 73° East 463 533 34,900  Descending Salt Lake Center
Tue 05:04:03 PM 42.2831 -111.1214 73° East 466 536 35,000 48 Climbing Salt Lake Center
Tue 05:05:05 PM 42.3194 -110.9528 74° East 467 537 35,000  Level Salt Lake Center
Tue 05:06:07 PM 42.3533 -110.7597 77° East 470 541 35,000  Level Salt Lake Center
Tue 05:07:09 PM 42.3747 -110.5956 80° East 465 535 35,000  Level Salt Lake Center
Tue 05:08:11 PM 42.3736 -110.4008 90° East 463 533 35,000  Level Salt Lake Center
Tue 05:09:13 PM 42.3656 -110.2372 94° East 459 528 35,000  Level Salt Lake Center
Tue 05:10:15 PM 42.3583 -110.0461 93° East 457 526 35,000  Level Salt Lake Center
Tue 05:11:16 PM 42.3697 -109.8797 85° East 471 542 35,000  Level Salt Lake Center
Tue 05:12:18 PM 42.4111 -109.6897 74° East 473 544 35,000  Level Salt Lake Center
Tue 05:13:20 PM 42.4475 -109.5242 73° East 476 548 35,000  Level Salt Lake Center
Tue 05:14:22 PM 42.4842 -109.3603 73° East 475 547 35,000  Level Salt Lake Center
Tue 05:15:24 PM 42.5258 -109.1656 74° East 480 552 35,000  Level Salt Lake Center
Tue 05:16:26 PM 42.5611 -108.9983 74° East 480 552 35,000  Level Salt Lake Center
Tue 05:17:28 PM 42.6033 -108.8025 74° East 483 556 35,000  Level Salt Lake Center
Tue 05:18:30 PM 42.6389 -108.6344 74° East 484 557 35,000  Level Salt Lake Center
Tue 05:19:32 PM 42.6792 -108.4367 74° East 485 558 35,000  Level Salt Lake Center
Tue 05:20:34 PM 42.7131 -108.2697 75° East 482 555 35,000  Level Salt Lake Center
Tue 05:21:36 PM 42.7531 -108.0750 74° East 480 552 35,000  Level Salt Lake Center
Tue 05:22:38 PM 42.7881 -107.9078 74° East 481 554 35,000  Level Salt Lake Center
Tue 05:23:40 PM 42.8256 -107.7111 75° East 481 554 35,000  Level Salt Lake Center
Tue 05:24:42 PM 42.8597 -107.5414 75° East 485 558 35,000  Level Salt Lake Center
Tue 05:25:44 PM 42.8931 -107.3719 75° East 485 558 35,000  Level Salt Lake Center
Tue 05:26:47 PM 42.9275 -107.1919 75° East 485 558 35,000  Level Salt Lake Center
Tue 05:27:49 PM 42.9664 -106.9783 76° East 486 559 35,000  Level Salt Lake Center
Tue 05:28:57 PM 43.0008 -106.7986 75° East 486 559 35,000  Level Denver Center
Tue 05:29:59 PM 43.0364 -106.6000 76° East 483 556 35,000  Level Denver Center
Tue 05:31:01 PM 43.0669 -106.4286 76° East 485 558 35,000  Level Denver Center
Tue 05:32:03 PM 43.1025 -106.2261 76° East 491 565 35,000  Level Denver Center
Tue 05:33:05 PM 43.1331 -106.0503 77° East 496 571 35,000  Level Denver Center
Tue 05:34:07 PM 43.1700 -105.8419 76° East 503 579 35,000  Level Denver Center
Tue 05:35:09 PM 43.1992 -105.6656 77° East 496 571 35,000  Level Denver Center
Tue 05:36:11 PM 43.2344 -105.4583 77° East 498 573 35,000  Level Denver Center
Tue 05:37:13 PM 43.2639 -105.2817 77° East 498 573 35,000  Level Denver Center
Tue 05:38:15 PM 43.2922 -105.1094 77° East 489 563 35,000  Level Denver Center
Tue 05:39:17 PM 43.3253 -104.9103 77° East 480 552 35,000  Level Denver Center
Tue 05:40:19 PM 43.3536 -104.7333 78° East 487 560 35,000  Level Denver Center
Tue 05:41:21 PM 43.3867 -104.5267 78° East 493 567 35,000  Level Denver Center
Tue 05:42:23 PM 43.4156 -104.3461 78° East 500 575 35,000  Level Denver Center
Tue 05:43:26 PM 43.4469 -104.1406 78° East 492 566 35,000  Level Denver Center
Tue 05:44:28 PM 43.4733 -103.9675 78° East 484 557 35,000  Level Denver Center
Tue 05:45:30 PM 43.5047 -103.7617 78° East 488 562 35,000  Level Denver Center
Tue 05:46:32 PM 43.5317 -103.5881 78° East 486 559 35,000  Level Denver Center
Tue 05:47:34 PM 43.5625 -103.3864 78° East 482 555 35,000  Level Denver Center
Tue 05:48:36 PM 43.5772 -103.2100 83° East 482 555 35,000  Level Denver Center
Tue 05:49:38 PM 43.5739 -103.0289 91° East 489 563 35,000 145 Level Denver Center
Tue 05:50:40 PM 43.5731 -102.8197 90° East 491 565 35,300 629 Climbing Denver Center
Tue 05:51:42 PM 43.5628 -102.6406 94° East 488 562 36,300 774 Climbing Denver Center
Tue 05:52:44 PM 43.5514 -102.4339 94° East 486 559 36,900 339 Climbing Denver Center
Tue 05:53:46 PM 43.5406 -102.2578 95° East 483 556 37,000 48 Climbing Denver Center
Tue 05:54:48 PM 43.5411 -102.0642 90° East 482 555 37,000  Level Denver Center
Tue 05:55:50 PM 43.5644 -101.8872 80° East 476 548 37,000  Level Denver Center
Tue 05:56:52 PM 43.5942 -101.7069 77° East 482 555 37,000  Level Denver Center
Tue 05:57:54 PM 43.6272 -101.5306 75° East 483 556 37,000  Level Denver Center
Tue 05:58:38 PM 43.6500 -101.3853 78° East 486 559 37,000  Level Minneapolis Center
Tue 05:59:44 PM 43.6850 -101.1639 78° East 492 566 37,000  Level Minneapolis Center
Tue 06:00:46 PM 43.7144 -100.9808 77° East 491 565 37,000  Level Minneapolis Center
Tue 06:01:48 PM 43.7433 -100.7961 78° East 492 566 37,000  Level Minneapolis Center
Tue 06:02:50 PM 43.7703 -100.6153 78° East 488 562 37,000  Level Minneapolis Center
Tue 06:03:52 PM 43.7967 -100.4397 78° East 476 548 37,000  Level Minneapolis Center
Tue 06:04:54 PM 43.8294 -100.2242 78° East 476 548 37,000  Level Minneapolis Center
Tue 06:05:56 PM 43.8569 -100.0403 78° East 483 556 37,000  Level Minneapolis Center
Tue 06:06:58 PM 43.8833 -99.8561 79° East 488 562 37,000  Level Minneapolis Center
Tue 06:08:00 PM 43.9094 -99.6714 79° East 490 564 37,000  Level Minneapolis Center
Tue 06:09:02 PM 43.9356 -99.4903 79° East 484 557 37,000  Level Minneapolis Center
Tue 06:10:05 PM 43.9614 -99.3064 79° East 486 559 37,000  Level Minneapolis Center
Tue 06:11:07 PM 43.9917 -99.0853 79° East 488 562 37,000  Level Minneapolis Center
Tue 06:12:09 PM 44.0169 -98.9036 79° East 484 557 37,000  Level Minneapolis Center
Tue 06:13:11 PM 44.0422 -98.7214 79° East 483 556 37,000  Level Minneapolis Center
Tue 06:14:13 PM 44.0658 -98.5422 80° East 485 558 37,000  Level Minneapolis Center
Tue 06:15:15 PM 44.0903 -98.3592 79° East 484 557 37,000  Level Minneapolis Center
Tue 06:16:17 PM 44.1192 -98.1394 80° East 482 555 37,000  Level Minneapolis Center
Tue 06:17:19 PM 44.1431 -97.9586 80° East 477 549 37,000  Level Minneapolis Center
Tue 06:18:21 PM 44.1650 -97.7794 80° East 473 544 37,000 48 Level Minneapolis Center
Tue 06:19:23 PM 44.1883 -97.5981 80° East 475 547 37,100 48 Climbing Minneapolis Center
Tue 06:20:26 PM 44.2103 -97.4150 80° East 478 550 37,100 -48 Level Minneapolis Center
Tue 06:21:28 PM 44.2333 -97.2325 80° East 479 551 37,000 -48 Descending Minneapolis Center
Tue 06:22:30 PM 44.2589 -97.0133 81° East 478 550 37,000  Level Minneapolis Center
Tue 06:23:32 PM 44.2808 -96.8297 80° East 479 551 37,000  Level Minneapolis Center
Tue 06:24:34 PM 44.3022 -96.6469 81° East 478 550 37,000  Level Minneapolis Center
Tue 06:25:36 PM 44.3242 -96.4642 80° East 476 548 37,000  Level Minneapolis Center
Tue 06:26:38 PM 44.3472 -96.2789 80° East 476 548 37,000 -97 Level Minneapolis Center
Tue 06:27:40 PM 44.3672 -96.0908 81° East 479 551 36,800 -581 Descending Minneapolis Center
Tue 06:28:42 PM 44.3858 -95.9075 82° East 475 547 35,800 -1,452 Descending Minneapolis Center
Tue 06:29:44 PM 44.4061 -95.7225 81° East 476 548 33,800 -2,952 Descending Minneapolis Center
Tue 06:30:46 PM 44.4300 -95.4983 81° East 483 556 29,700 -3,145 Descending Minneapolis Center
Tue 06:31:48 PM 44.4481 -95.3158 82° East 479 551 27,300 -2,304 Descending Minneapolis Center
Tue 06:32:51 PM 44.4658 -95.1414 82° East 458 527 24,900 -2,352 Descending Minneapolis Center
Tue 06:33:53 PM 44.5039 -94.9739 72° East 451 519 22,400 -2,468 Descending Minneapolis Center
Tue 06:34:55 PM 44.5428 -94.8158 71° East 438 504 19,800 -2,419 Descending Minneapolis Center
Tue 06:35:57 PM 44.5786 -94.6600 72° East 426 490 17,400 -2,419 Descending Minneapolis Center
Tue 06:36:59 PM 44.6150 -94.4975 72° East 404 465 14,800 -2,371 Descending Minneapolis Center
Tue 06:38:01 PM 44.6489 -94.3544 72° East 385 443 12,500 -1,645 Descending Minneapolis Center
Tue 06:39:03 PM 44.6794 -94.2186 72° East 364 419 11,400 -1,210 Descending Minneapolis Center
Tue 06:40:05 PM 44.7100 -94.0803 73° East 306 352 10,000 -1,790 Descending Minneapolis Center
Tue 06:41:07 PM 44.7344 -93.9731 72° East 290 334 7,700 -1,500 Descending Minneapolis Center
Tue 06:42:09 PM 44.7836 -93.8947 48° Northeast 281 323 6,900 -339 Descending Minneapolis Center
Tue 06:43:11 PM 44.8522 -93.8381 30° Northeast 284 327 7,000 48 Climbing Minneapolis Center
Tue 06:44:14 PM 44.9203 -93.7864 28° Northeast 279 321 7,000  Level Minneapolis Center
Tue 06:45:16 PM 44.9828 -93.7544 20° North 240 276 7,000  Level Minneapolis Center
Tue 06:46:18 PM 45.0431 -93.7022 31° Northeast 216 249 7,000  Level Minneapolis Center
Tue 06:47:20 PM 45.0478 -93.6206 85° East 212 244 7,000 -339 Level Minneapolis Center
Tue 06:48:22 PM 45.0231 -93.5481 116° Southeast 206 237 6,300 -1,113 Descending Minneapolis Center
Tue 06:49:24 PM 44.9931 -93.4778 121° Southeast 209 241 4,700 -1,258 Descending Minneapolis Center
Tue 06:50:26 PM 44.9656 -93.4144 122° Southeast 193 222 3,700 -968 Descending Minneapolis Center
Tue 06:51:28 PM 44.9383 -93.3508 121° Southeast 190 219 2,700 -968 Descending Minneapolis Center
Tue 06:52:30 PM 44.9106 -93.2867 121° Southeast 157 181 1,700 -823 Descending Minneapolis Center
Tue 06:53:32 PM 44.8900 -93.2389 121° Southeast 143 165 1,000 -677 Descending Minneapolis Center

Login

Don't have an account? Register now (free) for customized features, flight alerts, and more!